AXCGGARGarmin  id=179  eTrex Legend Software Version 3.90|2263690927
HFDTE130413
HFPLTPilot:
HFTZOTimezone:2
HFSITSite:
HPGTYGliderType:
HPGIDGliderID:
HFDTM100DATUM:WGS-1984
HFCIDCOMPETITIONID:
HFCCLCOMPETITIONCLASS:
LXCG     ICON:C:\Program Files\CompeGPS\symbols\IconsPlay\HG.ico
LXCG     COLOR:255000000
LXCG POINTSCOUNT:1052
LXCG COORDBOX:-4.924364,40.239872,-4.829714,40.286736
I00
B1325464015404N00454335WA0000001263
B1325564015400N00454337WA0000001263
B1326014015391N00454354WA0000001260
B1326074015370N00454380WA0000001256
B1326094015364N00454390WA0000001254
B1326144015347N00454403WA0000001249
B1326164015339N00454406WA0000001246
B1326234015310N00454407WA0000001246
B1326264015298N00454411WA0000001246
B1326304015284N00454417WA0000001246
B1326354015265N00454424WA0000001242
B1326394015246N00454422WA0000001241
B1326414015236N00454421WA0000001240
B1326454015221N00454424WA0000001237
B1326474015213N00454426WA0000001238
B1326564015187N00454425WA0000001250
B1326574015184N00454425WA0000001252
B1327044015175N00454447WA0000001265
B1327094015199N00454461WA0000001275
B1327134015205N00454438WA0000001281
B1327164015194N00454433WA0000001286
B1327194015189N00454433WA0000001294
B1327254015186N00454452WA0000001300
B1327294015209N00454453WA0000001308
B1327334015217N00454425WA0000001312
B1327354015213N00454413WA0000001317
B1327424015191N00454407WA0000001322
B1327444015187N00454415WA0000001323
B1327464015184N00454425WA0000001323
B1327514015190N00454453WA0000001324
B1327534015194N00454465WA0000001326
B1327594015230N00454483WA0000001337
B1328054015262N00454462WA0000001339
B1328104015261N00454429WA0000001340
B1328164015244N00454416WA0000001347
B1328214015227N00454416WA0000001349
B1328234015220N00454417WA0000001350
B1328304015193N00454416WA0000001347
B1328364015171N00454428WA0000001357
B1328434015151N00454442WA0000001364
B1328474015141N00454447WA0000001371
B1328564015122N00454461WA0000001366
B1328594015115N00454465WA0000001364
B1329034015105N00454466WA0000001365
B1329074015091N00454470WA0000001364
B1329124015075N00454484WA0000001365
B1329174015063N00454493WA0000001359
B1329244015046N00454496WA0000001347
B1329294015040N00454491WA0000001343
B1329344015034N00454482WA0000001333
B1329414015029N00454470WA0000001319
B1329484015020N00454452WA0000001304
B1329554015010N00454435WA0000001295
B1330034014992N00454421WA0000001305
B1330074014984N00454416WA0000001307
B1330144014971N00454402WA0000001311
B1330244014951N00454385WA0000001325
B1330284014942N00454385WA0000001322
B1330314014931N00454388WA0000001321
B1330334014926N00454388WA0000001319
B1330404014902N00454400WA0000001304
B1330484014875N00454413WA0000001292
B1330554014858N00454452WA0000001277
B1330564014858N00454460WA0000001274
B1331034014855N00454514WA0000001258
B1331064014858N00454533WA0000001253
B1331124014849N00454576WA0000001241
B1331164014840N00454600WA0000001237
B1331184014837N00454612WA0000001235
B1331214014830N00454627WA0000001230
B1331244014826N00454645WA0000001231
B1331304014810N00454668WA0000001228
B1331354014804N00454697WA0000001233
B1331404014803N00454726WA0000001239
B1331434014805N00454744WA0000001237
B1331514014835N00454784WA0000001233
B1331554014855N00454779WA0000001236
B1332024014877N00454748WA0000001233
B1332054014881N00454733WA0000001237
B1332134014884N00454693WA0000001232
B1332194014875N00454667WA0000001222
B1332274014853N00454646WA0000001202
B1332404014818N00454608WA0000001183
B1332444014810N00454592WA0000001176
B1332554014781N00454545WA0000001161
B1332584014778N00454534WA0000001156
B1333024014772N00454515WA0000001152
B1333064014770N00454500WA0000001148
B1333124014769N00454471WA0000001141
B1333174014777N00454448WA0000001144
B1333194014781N00454442WA0000001141
B1333234014787N00454421WA0000001146
B1333254014790N00454413WA0000001148
B1333304014782N00454397WA0000001151
B1333344014775N00454394WA0000001150
B1333434014755N00454382WA0000001140
B1333504014734N00454381WA0000001128
B1334014014689N00454411WA0000001099
B1334124014647N00454439WA0000001079
B1334194014622N00454455WA0000001076
B1334294014581N00454493WA0000001063
B1334384014541N00454541WA0000001052
B1334394014537N00454547WA0000001051
B1334484014510N00454590WA0000001059
B1334514014503N00454600WA0000001067
B1334544014495N00454610WA0000001072
B1335004014495N00454645WA0000001076
B1335074014531N00454668WA0000001077
B1335094014542N00454670WA0000001079
B1335134014563N00454661WA0000001084
B1335154014571N00454654WA0000001088
B1335234014571N00454630WA0000001086
B1335294014552N00454637WA0000001093
B1335304014549N00454639WA0000001093
B1335324014541N00454643WA0000001095
B1335394014528N00454676WA0000001098
B1335444014539N00454706WA0000001100
B1335504014572N00454716WA0000001097
B1335544014593N00454702WA0000001098
B1335594014612N00454684WA0000001101
B1336064014613N00454662WA0000001100
B1336134014594N00454666WA0000001105
B1336164014589N00454659WA0000001109
B1336204014581N00454653WA0000001116
B1336264014563N00454679WA0000001118
B1336324014573N00454724WA0000001117
B1336334014577N00454729WA0000001117
B1336364014591N00454743WA0000001118
B1336424014626N00454740WA0000001115
B1336434014630N00454737WA0000001116
B1336484014652N00454717WA0000001114
B1336514014667N00454711WA0000001112
B1336554014684N00454698WA0000001113
B1336574014691N00454690WA0000001113
B1337004014698N00454677WA0000001111
B1337104014711N00454628WA0000001101
B1337174014698N00454610WA0000001085
B1337194014691N00454615WA0000001081
B1337244014672N00454623WA0000001069
B1337304014653N00454623WA0000001059
B1337354014640N00454614WA0000001053
B1337394014631N00454601WA0000001050
B1337444014620N00454586WA0000001051
B1337484014612N00454569WA0000001055
B1337514014608N00454556WA0000001057
B1337574014593N00454546WA0000001054
B1338024014595N00454574WA0000001049
B1338054014612N00454586WA0000001048
B1338074014622N00454590WA0000001047
B1338144014658N00454572WA0000001047
B1338244014691N00454528WA0000001053
B1338294014698N00454501WA0000001053
B1338314014698N00454492WA0000001051
B1338384014693N00454462WA0000001057
B1338414014689N00454451WA0000001053
B1338474014685N00454426WA0000001050
B1338544014705N00454399WA0000001044
B1338564014715N00454394WA0000001042
B1339024014750N00454409WA0000001033
B1339074014748N00454446WA0000001031
B1339134014733N00454464WA0000001028
B1339164014724N00454466WA0000001025
B1339214014710N00454474WA0000001022
B1339264014696N00454489WA0000001017
B1339314014684N00454511WA0000001012
B1339414014664N00454570WA0000001006
B1339424014661N00454574WA0000001007
B1339444014655N00454582WA0000001007
B1339514014652N00454622WA0000001008
B1339564014678N00454643WA0000001004
B1339594014696N00454645WA0000001001
B1340014014707N00454644WA0000001000
B1340064014727N00454623WA0000000996
B1340094014731N00454609WA0000000997
B1340164014733N00454579WA0000000993
B1340254014723N00454543WA0000000993
B1340284014715N00454536WA0000000996
B1340324014707N00454524WA0000000997
B1340384014697N00454502WA0000000993
B1340474014683N00454482WA0000000997
B1340574014670N00454465WA0000000994
B1341044014662N00454449WA0000000991
B1341114014645N00454430WA0000000994
B1341134014644N00454426WA0000000995
B1341194014630N00454412WA0000001003
B1341214014624N00454411WA0000001004
B1341284014604N00454434WA0000001009
B1341334014593N00454460WA0000001000
B1341384014581N00454452WA0000000995
B1341434014579N00454430WA0000000995
B1341484014581N00454407WA0000000998
B1341564014589N00454371WA0000001006
B1342004014590N00454348WA0000001005
B1342064014585N00454321WA0000001016
B1342094014579N00454310WA0000001019
B1342164014557N00454309WA0000001026
B1342224014544N00454339WA0000001028
B1342274014561N00454361WA0000001029
B1342304014576N00454357WA0000001031
B1342324014585N00454352WA0000001034
B1342374014604N00454330WA0000001039
B1342414014615N00454314WA0000001046
B1342474014612N00454290WA0000001051
B1342524014593N00454295WA0000001056
B1342584014598N00454335WA0000001056
B1343034014625N00454343WA0000001058
B1343074014636N00454325WA0000001064
B1343164014639N00454282WA0000001072
B1343214014628N00454270WA0000001082
B1343244014621N00454261WA0000001086
B1343304014606N00454274WA0000001090
B1343344014617N00454297WA0000001095
B1343394014645N00454304WA0000001097
B1343424014661N00454303WA0000001103
B1343484014683N00454277WA0000001103
B1343534014672N00454260WA0000001112
B1343554014667N00454260WA0000001115
B1343574014661N00454261WA0000001118
B1344024014645N00454261WA0000001120
B1344084014630N00454279WA0000001122
B1344154014642N00454321WA0000001126
B1344204014669N00454326WA0000001130
B1344264014684N00454297WA0000001132
B1344284014683N00454288WA0000001132
B1344304014682N00454277WA0000001131
B1344384014682N00454237WA0000001143
B1344474014674N00454203WA0000001147
B1344544014653N00454210WA0000001145
B1344584014642N00454225WA0000001141
B1345034014629N00454251WA0000001139
B1345104014635N00454299WA0000001135
B1345154014662N00454317WA0000001132
B1345204014684N00454300WA0000001134
B1345254014689N00454274WA0000001129
B1345274014688N00454264WA0000001129
B1345344014680N00454231WA0000001127
B1345424014671N00454202WA0000001129
B1345524014660N00454178WA0000001129
B1345564014651N00454166WA0000001124
B1346004014642N00454155WA0000001128
B1346104014633N00454130WA0000001134
B1346154014625N00454125WA0000001134
B1346194014616N00454128WA0000001129
B1346264014606N00454161WA0000001123
B1346314014629N00454192WA0000001116
B1346354014652N00454187WA0000001113
B1346384014658N00454173WA0000001120
B1346414014662N00454161WA0000001119
B1346484014652N00454137WA0000001118
B1346504014649N00454131WA0000001119
B1346574014638N00454111WA0000001122
B1347014014639N00454097WA0000001122
B1347064014643N00454080WA0000001123
B1347104014645N00454064WA0000001123
B1347164014671N00454046WA0000001126
B1347194014689N00454049WA0000001133
B1347214014700N00454053WA0000001135
B1347294014732N00454098WA0000001141
B1347354014727N00454126WA0000001141
B1347364014723N00454130WA0000001141
B1347444014707N00454146WA0000001142
B1347494014705N00454130WA0000001145
B1348004014721N00454079WA0000001148
B1348044014723N00454057WA0000001157
B1348124014718N00454026WA0000001154
B1348184014705N00454007WA0000001149
B1348224014694N00453994WA0000001156
B1348294014670N00453985WA0000001166
B1348354014655N00454005WA0000001163
B1348414014671N00454032WA0000001155
B1348444014685N00454031WA0000001150
B1348494014714N00454025WA0000001147
B1348514014724N00454018WA0000001148
B1348564014746N00453995WA0000001150
B1349024014756N00453963WA0000001157
B1349044014756N00453952WA0000001163
B1349124014739N00453940WA0000001177
B1349184014731N00453965WA0000001181
B1349244014752N00453994WA0000001175
B1349294014774N00453977WA0000001180
B1349324014781N00453965WA0000001189
B1349394014779N00453937WA0000001196
B1349434014770N00453934WA0000001197
B1349464014765N00453933WA0000001196
B1349544014746N00453936WA0000001199
B1349564014742N00453941WA0000001203
B1349584014737N00453946WA0000001208
B1350044014729N00453974WA0000001221
B1350104014748N00454003WA0000001236
B1350144014768N00453988WA0000001241
B1350184014768N00453967WA0000001239
B1350244014763N00453937WA0000001253
B1350314014741N00453931WA0000001269
B1350334014737N00453941WA0000001276
B1350354014736N00453947WA0000001281
B1350424014714N00453961WA0000001291
B1350454014705N00453959WA0000001297
B1350484014694N00453954WA0000001305
B1350554014692N00453929WA0000001310
B1351024014706N00453905WA0000001316
B1351064014724N00453901WA0000001318
B1351154014770N00453915WA0000001332
B1351234014797N00453952WA0000001348
B1351264014803N00453972WA0000001354
B1351344014796N00454017WA0000001358
B1351374014787N00454028WA0000001361
B1351424014770N00454045WA0000001357
B1351464014755N00454046WA0000001353
B1351504014739N00454045WA0000001355
B1351554014720N00454040WA0000001360
B1352044014693N00454019WA0000001349
B1352154014652N00453992WA0000001344
B1352174014644N00453987WA0000001342
B1352214014634N00453973WA0000001335
B1352314014608N00453936WA0000001322
B1352374014589N00453910WA0000001308
B1352414014580N00453893WA0000001300
B1352454014573N00453873WA0000001291
B1352474014572N00453862WA0000001290
B1352594014571N00453801WA0000001288
B1353104014566N00453749WA0000001286
B1353134014562N00453732WA0000001282
B1353154014561N00453722WA0000001280
B1353174014558N00453712WA0000001277
B1353194014557N00453701WA0000001273
B1353234014549N00453681WA0000001264
B1353274014537N00453661WA0000001256
B1353304014527N00453651WA0000001248
B1353374014513N00453618WA0000001235
B1353434014497N00453589WA0000001225
B1353444014494N00453589WA0000001223
B1353534014452N00453578WA0000001201
B1353594014434N00453598WA0000001185
B1354034014441N00453619WA0000001174
B1354114014465N00453667WA0000001167
B1354164014466N00453699WA0000001164
B1354234014454N00453737WA0000001176
B1354264014452N00453754WA0000001183
B1354364014427N00453804WA0000001212
B1354394014419N00453815WA0000001219
B1354464014394N00453808WA0000001232
B1354494014392N00453794WA0000001239
B1354514014392N00453782WA0000001244
B1354594014418N00453750WA0000001268
B1355054014447N00453762WA0000001285
B1355094014458N00453786WA0000001301
B1355114014460N00453798WA0000001308
B1355194014442N00453837WA0000001321
B1355214014433N00453837WA0000001325
B1355234014425N00453834WA0000001330
B1355304014411N00453807WA0000001348
B1355364014427N00453775WA0000001355
B1355434014463N00453766WA0000001370
B1355474014482N00453772WA0000001383
B1355534014499N00453798WA0000001397
B1355584014497N00453830WA0000001408
B1356014014492N00453849WA0000001409
B1356054014478N00453862WA0000001416
B1356074014473N00453862WA0000001420
B1356134014460N00453843WA0000001428
B1356204014478N00453816WA0000001446
B1356224014487N00453812WA0000001451
B1356244014497N00453810WA0000001457
B1356314014526N00453828WA0000001474
B1356344014535N00453846WA0000001477
B1356414014531N00453888WA0000001484
B1356454014515N00453901WA0000001484
B1356524014492N00453898WA0000001488
B1356544014486N00453895WA0000001489
B1357024014481N00453860WA0000001491
B1357094014513N00453849WA0000001501
B1357124014528N00453853WA0000001504
B1357234014577N00453896WA0000001517
B1357354014636N00453941WA0000001505
B1357434014684N00453964WA0000001514
B1357494014712N00453986WA0000001508
B1357514014723N00453992WA0000001509
B1357554014742N00453998WA0000001507
B1358004014772N00454003WA0000001501
B1358034014788N00454004WA0000001503
B1358124014844N00454014WA0000001508
B1358164014869N00454026WA0000001513
B1358194014884N00454039WA0000001518
B1358284014934N00454073WA0000001540
B1358324014951N00454088WA0000001551
B1358394014965N00454131WA0000001561
B1358424014965N00454152WA0000001565
B1358474014953N00454185WA0000001569
B1358544014922N00454214WA0000001575
B1358594014899N00454229WA0000001578
B1359054014875N00454225WA0000001578
B1359114014882N00454207WA0000001571
B1359154014900N00454207WA0000001573
B1359244014938N00454218WA0000001586
B1359294014957N00454218WA0000001594
B1359374014989N00454218WA0000001602
B1359424015012N00454220WA0000001610
B1359504015046N00454236WA0000001615
B1359544015065N00454246WA0000001613
B1359564015073N00454251WA0000001611
B1400004015091N00454258WA0000001605
B1400084015123N00454258WA0000001597
B1400104015133N00454258WA0000001592
B1400174015167N00454265WA0000001590
B1400264015202N00454281WA0000001590
B1400274015207N00454283WA0000001590
B1400324015229N00454290WA0000001594
B1400354015243N00454290WA0000001602
B1400414015266N00454301WA0000001606
B1400444015276N00454312WA0000001613
B1400464015285N00454318WA0000001617
B1400494015297N00454331WA0000001623
B1400534015315N00454343WA0000001630
B1400594015329N00454385WA0000001635
B1401004015328N00454393WA0000001637
B1401034015327N00454417WA0000001639
B1401124015301N00454484WA0000001641
B1401224015262N00454554WA0000001621
B1401314015234N00454605WA0000001605
B1401324015230N00454610WA0000001603
B1401354015217N00454626WA0000001598
B1401444015178N00454673WA0000001575
B1401524015144N00454716WA0000001564
B1402014015102N00454767WA0000001554
B1402024015097N00454774WA0000001553
B1402054015083N00454788WA0000001556
B1402164015037N00454841WA0000001554
B1402234015003N00454873WA0000001546
B1402274014991N00454897WA0000001548
B1402364014956N00454945WA0000001545
B1402434014924N00454984WA0000001538
B1402514014884N00455033WA0000001528
B1402594014837N00455083WA0000001504
B1403104014777N00455150WA0000001484
B1403174014736N00455194WA0000001463
B1403314014653N00455288WA0000001438
B1403414014604N00455339WA0000001423
B1403514014554N00455389WA0000001399
B1403544014539N00455402WA0000001392
B1403574014522N00455416WA0000001383
B1404064014469N00455451WA0000001359
B1404094014454N00455461WA0000001354
B1404164014432N00455448WA0000001333
B1404224014437N00455411WA0000001315
B1404234014439N00455406WA0000001314
B1404314014473N00455370WA0000001298
B1404404014499N00455312WA0000001284
B1404494014522N00455249WA0000001268
B1404594014541N00455173WA0000001239
B1405124014561N00455071WA0000001210
B1405204014569N00455011WA0000001196
B1405244014573N00454986WA0000001185
B1405324014579N00454935WA0000001170
B1405424014595N00454863WA0000001151
B1405524014598N00454783WA0000001129
B1406034014597N00454697WA0000001104
B1406164014594N00454592WA0000001071
B1406214014597N00454551WA0000001072
B1406264014597N00454524WA0000001076
B1406324014604N00454483WA0000001091
B1406394014591N00454452WA0000001091
B1406434014580N00454470WA0000001091
B1406484014594N00454492WA0000001100
B1406534014612N00454474WA0000001110
B1406554014618N00454465WA0000001115
B1407034014635N00454428WA0000001127
B1407094014626N00454403WA0000001123
B1407144014608N00454424WA0000001119
B1407184014616N00454452WA0000001120
B1407224014634N00454452WA0000001122
B1407274014648N00454433WA0000001124
B1407304014655N00454420WA0000001127
B1407324014658N00454415WA0000001127
B1407394014660N00454385WA0000001116
B1407404014660N00454379WA0000001111
B1407424014661N00454367WA0000001106
B1407454014664N00454350WA0000001097
B1407504014660N00454322WA0000001088
B1407584014642N00454287WA0000001076
B1408034014635N00454265WA0000001072
B1408064014631N00454254WA0000001073
B1408124014638N00454225WA0000001074
B1408154014647N00454213WA0000001073
B1408204014667N00454198WA0000001075
B1408274014709N00454203WA0000001078
B1408284014714N00454206WA0000001079
B1408324014736N00454220WA0000001079
B1408384014760N00454254WA0000001081
B1408444014760N00454288WA0000001077
B1408504014745N00454290WA0000001079
B1408564014733N00454276WA0000001076
B1408594014728N00454265WA0000001076
B1409054014725N00454237WA0000001081
B1409124014716N00454214WA0000001084
B1409164014705N00454222WA0000001078
B1409234014687N00454213WA0000001073
B1409244014687N00454209WA0000001072
B1409284014682N00454192WA0000001066
B1409314014676N00454180WA0000001065
B1409334014674N00454174WA0000001062
B1409374014664N00454162WA0000001060
B1409444014647N00454149WA0000001052
B1409544014622N00454120WA0000001036
B1409554014620N00454117WA0000001036
B1410034014611N00454089WA0000001034
B1410064014606N00454076WA0000001027
B1410104014597N00454062WA0000001018
B1410174014582N00454036WA0000001002
B1410234014567N00454026WA0000001001
B1410274014557N00454016WA0000001004
B1410304014550N00454012WA0000001007
B1410354014533N00454007WA0000001004
B1410414014513N00453994WA0000000999
B1410484014508N00453960WA0000001002
B1410494014509N00453956WA0000001001
B1410544014519N00453929WA0000001002
B1411014014506N00453898WA0000000993
B1411064014492N00453914WA0000000984
B1411104014499N00453938WA0000000977
B1411164014515N00453970WA0000000973
B1411244014527N00454018WA0000000971
B1411324014523N00454059WA0000000969
B1411354014515N00454066WA0000000970
B1411374014510N00454068WA0000000969
B1411444014495N00454048WA0000000975
B1411514014495N00454021WA0000000978
B1411574014474N00454016WA0000000982
B1412024014465N00454039WA0000000982
B1412054014466N00454061WA0000000976
B1412114014456N00454094WA0000000971
B1412164014443N00454082WA0000000963
B1412174014442N00454077WA0000000961
B1412224014429N00454055WA0000000958
B1412284014422N00454036WA0000000948
B1412324014423N00454016WA0000000945
B1412424014433N00453963WA0000000935
B1412514014441N00453906WA0000000922
B1413034014438N00453816WA0000000905
B1413114014445N00453753WA0000000900
B1413194014456N00453701WA0000000909
B1413284014470N00453649WA0000000916
B1413354014472N00453611WA0000000918
B1413404014460N00453602WA0000000910
B1413454014452N00453632WA0000000906
B1413474014456N00453642WA0000000907
B1413564014485N00453687WA0000000919
B1413584014491N00453696WA0000000923
B1414024014494N00453716WA0000000923
B1414044014492N00453725WA0000000926
B1414104014478N00453740WA0000000932
B1414134014473N00453741WA0000000935
B1414194014461N00453728WA0000000946
B1414254014488N00453713WA0000000947
B1414294014506N00453737WA0000000956
B1414344014497N00453759WA0000000964
B1414374014490N00453759WA0000000972
B1414414014481N00453755WA0000000977
B1414474014481N00453728WA0000000985
B1414524014508N00453719WA0000000993
B1414574014527N00453749WA0000001002
B1414584014527N00453755WA0000001003
B1415014014530N00453773WA0000001011
B1415074014514N00453780WA0000001016
B1415124014514N00453759WA0000001028
B1415184014542N00453750WA0000001041
B1415194014546N00453755WA0000001044
B1415254014568N00453790WA0000001053
B1415314014561N00453820WA0000001054
B1415364014545N00453812WA0000001055
B1415414014553N00453786WA0000001060
B1415454014573N00453771WA0000001063
B1415474014585N00453767WA0000001070
B1415544014602N00453732WA0000001084
B1416004014591N00453722WA0000001091
B1416044014595N00453750WA0000001094
B1416094014622N00453761WA0000001103
B1416144014640N00453741WA0000001113
B1416194014631N00453730WA0000001112
B1416234014624N00453753WA0000001118
B1416304014626N00453789WA0000001130
B1416364014655N00453799WA0000001132
B1416414014667N00453775WA0000001138
B1416464014657N00453768WA0000001140
B1416514014657N00453793WA0000001145
B1416564014679N00453804WA0000001150
B1417024014710N00453789WA0000001154
B1417034014714N00453784WA0000001156
B1417064014724N00453771WA0000001160
B1417134014721N00453744WA0000001158
B1417144014718N00453744WA0000001158
B1417194014701N00453743WA0000001163
B1417224014691N00453744WA0000001165
B1417294014671N00453767WA0000001167
B1417374014658N00453811WA0000001183
B1417434014656N00453839WA0000001183
B1417474014661N00453857WA0000001184
B1417514014667N00453882WA0000001178
B1417554014679N00453898WA0000001174
B1418004014689N00453927WA0000001165
B1418084014703N00453982WA0000001153
B1418104014707N00453995WA0000001153
B1418214014731N00454055WA0000001152
B1418294014745N00454112WA0000001160
B1418314014746N00454125WA0000001161
B1418384014766N00454164WA0000001156
B1418464014800N00454200WA0000001142
B1418514014796N00454224WA0000001136
B1418524014794N00454227WA0000001138
B1418554014787N00454231WA0000001135
B1419014014772N00454219WA0000001129
B1419054014765N00454202WA0000001122
B1419104014760N00454179WA0000001120
B1419134014755N00454162WA0000001120
B1419164014754N00454149WA0000001119
B1419184014751N00454139WA0000001116
B1419204014750N00454128WA0000001116
B1419274014746N00454102WA0000001131
B1419284014746N00454098WA0000001134
B1419304014747N00454091WA0000001136
B1419394014733N00454084WA0000001139
B1419464014714N00454093WA0000001142
B1419514014723N00454121WA0000001151
B1419564014751N00454124WA0000001156
B1419594014761N00454110WA0000001164
B1420054014778N00454082WA0000001171
B1420094014781N00454068WA0000001169
B1420184014764N00454066WA0000001169
B1420224014755N00454073WA0000001175
B1420264014743N00454072WA0000001179
B1420314014733N00454080WA0000001186
B1420334014728N00454085WA0000001188
B1420414014712N00454124WA0000001191
B1420474014725N00454166WA0000001198
B1420494014733N00454180WA0000001198
B1420554014772N00454192WA0000001201
B1420584014787N00454182WA0000001202
B1421014014800N00454171WA0000001203
B1421074014817N00454142WA0000001208
B1421104014819N00454129WA0000001213
B1421144014828N00454113WA0000001218
B1421164014835N00454107WA0000001219
B1421234014848N00454080WA0000001224
B1421274014858N00454063WA0000001219
B1421294014864N00454057WA0000001219
B1421354014877N00454030WA0000001218
B1421404014877N00454009WA0000001213
B1421464014868N00453986WA0000001201
B1421524014857N00453972WA0000001196
B1421574014842N00453959WA0000001193
B1422024014830N00453947WA0000001182
B1422064014819N00453941WA0000001177
B1422184014785N00453905WA0000001162
B1422234014769N00453891WA0000001161
B1422284014761N00453873WA0000001161
B1422324014755N00453864WA0000001160
B1422374014746N00453846WA0000001162
B1422484014724N00453803WA0000001161
B1422564014703N00453779WA0000001171
B1423024014687N00453757WA0000001183
B1423044014683N00453750WA0000001183
B1423104014683N00453719WA0000001198
B1423164014705N00453708WA0000001213
B1423214014721N00453734WA0000001224
B1423264014709N00453759WA0000001231
B1423314014694N00453745WA0000001237
B1423364014705N00453727WA0000001253
B1423424014733N00453728WA0000001264
B1423444014739N00453736WA0000001265
B1423464014748N00453746WA0000001267
B1423514014754N00453782WA0000001273
B1423574014737N00453813WA0000001276
B1424024014716N00453801WA0000001277
B1424064014725N00453781WA0000001278
B1424114014747N00453781WA0000001287
B1424164014769N00453784WA0000001296
B1424234014795N00453817WA0000001302
B1424254014800N00453831WA0000001307
B1424314014795N00453869WA0000001312
B1424354014785N00453895WA0000001318
B1424404014769N00453916WA0000001321
B1424454014750N00453924WA0000001323
B1424494014734N00453919WA0000001321
B1424514014727N00453914WA0000001320
B1424564014716N00453892WA0000001318
B1424584014716N00453883WA0000001319
B1425054014732N00453853WA0000001311
B1425074014739N00453848WA0000001309
B1425104014754N00453842WA0000001307
B1425214014815N00453847WA0000001320
B1425264014841N00453851WA0000001329
B1425314014864N00453860WA0000001329
B1425354014880N00453876WA0000001330
B1425414014894N00453910WA0000001328
B1425454014906N00453937WA0000001326
B1425484014916N00453958WA0000001331
B1425554014918N00453999WA0000001351
B1425594014911N00454019WA0000001361
B1426024014903N00454031WA0000001369
B1426064014890N00454041WA0000001377
B1426144014875N00454027WA0000001384
B1426194014891N00454005WA0000001394
B1426244014916N00454013WA0000001407
B1426354014969N00454067WA0000001438
B1426364014972N00454073WA0000001441
B1426414014980N00454103WA0000001446
B1426504014975N00454169WA0000001454
B1426544014969N00454194WA0000001457
B1426574014965N00454219WA0000001463
B1427014014956N00454243WA0000001461
B1427064014940N00454264WA0000001458
B1427104014924N00454270WA0000001448
B1427124014917N00454269WA0000001446
B1427174014904N00454263WA0000001434
B1427284014885N00454228WA0000001422
B1427344014873N00454205WA0000001419
B1427364014869N00454198WA0000001418
B1427454014853N00454156WA0000001406
B1427464014851N00454151WA0000001405
B1427554014841N00454104WA0000001392
B1428014014844N00454076WA0000001391
B1428084014871N00454049WA0000001389
B1428104014882N00454048WA0000001392
B1428194014924N00454037WA0000001405
B1428254014930N00454018WA0000001404
B1428294014913N00454026WA0000001403
B1428354014907N00454071WA0000001404
B1428374014913N00454088WA0000001407
B1428404014922N00454111WA0000001414
B1428464014948N00454146WA0000001425
B1428504014969N00454160WA0000001434
B1428554014991N00454170WA0000001450
B1428574015000N00454175WA0000001453
B1429054015030N00454169WA0000001458
B1429094015021N00454157WA0000001457
B1429134015006N00454167WA0000001458
B1429154014997N00454175WA0000001459
B1429244014976N00454234WA0000001472
B1429254014975N00454243WA0000001474
B1429314014991N00454291WA0000001485
B1429324014994N00454296WA0000001484
B1429354015010N00454312WA0000001481
B1429454015070N00454337WA0000001481
B1429494015092N00454340WA0000001483
B1429594015153N00454346WA0000001495
B1430044015182N00454346WA0000001496
B1430134015226N00454348WA0000001480
B1430234015281N00454352WA0000001460
B1430334015332N00454361WA0000001451
B1430494015410N00454371WA0000001458
B1430524015427N00454372WA0000001469
B1430574015452N00454372WA0000001488
B1431044015476N00454403WA0000001495
B1431094015460N00454431WA0000001505
B1431144015441N00454426WA0000001513
B1431174015433N00454413WA0000001517
B1431204015427N00454399WA0000001519
B1431264015428N00454361WA0000001532
B1431294015435N00454345WA0000001543
B1431354015459N00454334WA0000001556
B1431364015464N00454337WA0000001558
B1431394015476N00454350WA0000001563
B1431464015480N00454390WA0000001579
B1431514015460N00454389WA0000001593
B1431574015457N00454355WA0000001605
B1432014015466N00454334WA0000001613
B1432084015491N00454310WA0000001619
B1432104015500N00454308WA0000001622
B1432154015521N00454319WA0000001619
B1432204015538N00454337WA0000001616
B1432284015572N00454348WA0000001594
B1432304015583N00454348WA0000001592
B1432344015603N00454354WA0000001584
B1432394015619N00454367WA0000001571
B1432444015639N00454363WA0000001559
B1432544015686N00454326WA0000001541
B1433024015724N00454290WA0000001534
B1433094015754N00454256WA0000001531
B1433134015768N00454238WA0000001539
B1433164015781N00454228WA0000001539
B1433244015811N00454203WA0000001539
B1433284015821N00454184WA0000001536
B1433374015850N00454131WA0000001514
B1433474015879N00454067WA0000001497
B1433504015884N00454046WA0000001488
B1434004015908N00453983WA0000001472
B1434084015921N00453941WA0000001462
B1434164015943N00453880WA0000001448
B1434304015974N00453781WA0000001432
B1434404015996N00453713WA0000001418
B1434444016010N00453686WA0000001411
B1434504016022N00453645WA0000001397
B1435014016059N00453583WA0000001367
B1435124016086N00453507WA0000001342
B1435194016103N00453476WA0000001337
B1435204016105N00453471WA0000001337
B1435234016114N00453463WA0000001335
B1435304016134N00453434WA0000001325
B1435354016152N00453417WA0000001324
B1435454016178N00453382WA0000001316
B1435474016181N00453374WA0000001313
B1435534016188N00453345WA0000001309
B1435574016189N00453329WA0000001315
B1436014016194N00453315WA0000001313
B1436054016205N00453301WA0000001311
B1436144016229N00453256WA0000001317
B1436194016245N00453234WA0000001324
B1436224016252N00453222WA0000001321
B1436274016264N00453202WA0000001314
B1436384016281N00453148WA0000001302
B1436494016306N00453090WA0000001291
B1436544016318N00453062WA0000001285
B1436594016333N00453038WA0000001291
B1437014016341N00453033WA0000001294
B1437034016348N00453025WA0000001294
B1437094016349N00453000WA0000001299
B1437144016332N00453002WA0000001292
B1437194016324N00453033WA0000001289
B1437234016340N00453058WA0000001294
B1437244016345N00453062WA0000001295
B1437264016355N00453069WA0000001297
B1437314016384N00453077WA0000001301
B1437394016414N00453051WA0000001312
B1437444016420N00453032WA0000001321
B1437504016413N00453006WA0000001330
B1437554016396N00453020WA0000001326
B1438004016403N00453053WA0000001322
B1438054016427N00453072WA0000001323
B1438084016444N00453078WA0000001331
B1438144016462N00453062WA0000001328
B1438154016462N00453056WA0000001328
B1438204016465N00453034WA0000001331
B1438294016482N00452996WA0000001332
B1438324016489N00452984WA0000001335
B1438354016494N00452970WA0000001335
B1438394016505N00452950WA0000001334
B1438424016512N00452931WA0000001338
B1438464016516N00452913WA0000001339
B1438514016511N00452890WA0000001342
B1438544016506N00452877WA0000001342
B1439004016483N00452883WA0000001341
B1439044016483N00452913WA0000001341
B1439074016495N00452931WA0000001342
B1439104016509N00452946WA0000001342
B1439174016534N00452928WA0000001342
B1439184016536N00452921WA0000001342
B1439234016544N00452894WA0000001344
B1439294016560N00452871WA0000001343
B1439344016570N00452847WA0000001339
B1439424016578N00452798WA0000001329
B1439494016595N00452762WA0000001316
B1439544016613N00452736WA0000001308
B1440024016637N00452688WA0000001303
B1440134016660N00452624WA0000001307
B1440184016672N00452597WA0000001310
B1440214016673N00452584WA0000001309
B1440254016685N00452570WA0000001302
B1440304016698N00452548WA0000001295
B1440384016705N00452509WA0000001284
B1440394016707N00452504WA0000001283
B1440474016723N00452465WA0000001274
B1440554016739N00452420WA0000001249
B1441064016752N00452344WA0000001214
B1441164016763N00452265WA0000001189
B1441174016763N00452257WA0000001188
B1441204016762N00452235WA0000001183
B1441244016766N00452205WA0000001177
B1441264016769N00452192WA0000001174
B1441304016780N00452172WA0000001171
B1441374016801N00452146WA0000001154
B1441444016816N00452110WA0000001134
B1441504016825N00452060WA0000001125
B1441554016837N00452038WA0000001121
B1442054016863N00451976WA0000001116
B1442174016880N00451900WA0000001111
B1442194016883N00451887WA0000001112
B1442244016893N00451859WA0000001110
B1442304016914N00451829WA0000001115
B1442334016926N00451818WA0000001122
B1442354016932N00451810WA0000001124
B1442414016929N00451784WA0000001123
B1442454016915N00451797WA0000001127
B1442514016917N00451836WA0000001135
B1442524016918N00451841WA0000001137
B1442544016922N00451853WA0000001138
B1443004016915N00451878WA0000001141
B1443074016891N00451868WA0000001136
B1443114016895N00451842WA0000001135
B1443204016915N00451790WA0000001145
B1443274016904N00451762WA0000001146
B1443324016891N00451784WA0000001151
B1443334016890N00451791WA0000001152
B1443404016905N00451837WA0000001165
B1443434016915N00451850WA0000001171
B1443454016924N00451856WA0000001172
B1443524016940N00451894WA0000001172
B1443584016927N00451912WA0000001177
B1444034016911N00451895WA0000001180
B1444074016913N00451872WA0000001177
B1444094016915N00451859WA0000001178
B1444154016935N00451832WA0000001189
B1444234016951N00451792WA0000001201
B1444284016932N00451780WA0000001202
B1444334016922N00451811WA0000001209
B1444354016926N00451824WA0000001214
B1444424016954N00451863WA0000001233
B1444474016977N00451864WA0000001244
B1444494016985N00451860WA0000001246
B1444554016986N00451833WA0000001241
B1444564016983N00451829WA0000001240
B1445034016956N00451826WA0000001246
B1445054016953N00451835WA0000001252
B1445084016948N00451849WA0000001259
B1445154016958N00451889WA0000001277
B1445204016982N00451890WA0000001285
B1445214016986N00451886WA0000001288
B1445254017002N00451881WA0000001292
B1445314017009N00451856WA0000001296
B1445334017009N00451849WA0000001293
B1445424017008N00451799WA0000001293
B1445464017009N00451774WA0000001295
B1445544017003N00451737WA0000001301
B1445564016999N00451726WA0000001303
B1446034016976N00451715WA0000001309
B1446084016958N00451726WA0000001311
B1446154016938N00451759WA0000001310
B1446254016926N00451832WA0000001313
B1446284016926N00451850WA0000001321
B1446304016928N00451863WA0000001322
B1446344016938N00451883WA0000001327
B1446384016956N00451899WA0000001329
B1446464016996N00451913WA0000001347
B1446534017024N00451889WA0000001356
B1446564017027N00451869WA0000001356
B1446584017029N00451856WA0000001358
B1447034017021N00451832WA0000001369
B1447074017010N00451817WA0000001377
B1447124017004N00451796WA0000001382
B1447184016989N00451779WA0000001381
B1447234016967N00451773WA0000001392
B1447264016956N00451766WA0000001395
B1447294016944N00451761WA0000001402
B1447364016919N00451753WA0000001394
B1447414016909N00451782WA0000001386
B1447484016915N00451824WA0000001386
B1447524016921N00451847WA0000001390
B1447564016927N00451862WA0000001389
B1448034016958N00451894WA0000001387
B1448064016971N00451904WA0000001386
B1448114016998N00451916WA0000001384
B1448154017021N00451912WA0000001383
B1448254017070N00451886WA0000001400
B1448334017103N00451864WA0000001410
B1448354017111N00451858WA0000001411
B1448444017138N00451818WA0000001406
B1448464017143N00451808WA0000001406
B1448504017157N00451792WA0000001405
B1448574017162N00451752WA0000001395
B1449024017143N00451734WA0000001385
B1449054017129N00451729WA0000001383
B1449124017101N00451701WA0000001390
B1449204017069N00451675WA0000001384
B1449234017056N00451659WA0000001380
B1449304017022N00451649WA0000001372
B1449354017004N00451666WA0000001372
B1449374017000N00451676WA0000001371
B1449424016995N00451711WA0000001367
B1449484017002N00451756WA0000001362
B1449524017013N00451786WA0000001362
B1449584017039N00451820WA0000001355
B1450054017078N00451828WA0000001348
B1450094017098N00451813WA0000001345
B1450144017119N00451797WA0000001357
B1450204017143N00451782WA0000001363
B1450284017173N00451751WA0000001371
B1450344017183N00451715WA0000001365
B1450424017182N00451661WA0000001364
B1450464017186N00451639WA0000001363
B1450554017199N00451578WA0000001367
B1450574017200N00451568WA0000001365
B1451044017204N00451527WA0000001356
B1451124017199N00451459WA0000001341
B1451134017196N00451451WA0000001340
B1451194017182N00451423WA0000001334
B1451224017178N00451405WA0000001330
B1451324017169N00451340WA0000001310
B1451434017166N00451255WA0000001289
B1451564017172N00451154WA0000001258
B1452084017179N00451069WA0000001235
B1452134017175N00451034WA0000001236
B1452184017173N00451012WA0000001235
B1452294017179N00450949WA0000001222
B1452384017183N00450900WA0000001216
B1452484017184N00450841WA0000001198
B1452584017178N00450769WA0000001167
B1453094017170N00450681WA0000001133
B1453174017164N00450620WA0000001106
B1453244017168N00450568WA0000001089
B1453314017170N00450532WA0000001085
B1453344017174N00450519WA0000001085
B1453464017189N00450454WA0000001082
B1453584017193N00450387WA0000001077
B1454004017195N00450378WA0000001075
B1454054017195N00450351WA0000001067
B1454134017200N00450300WA0000001061
B1454154017201N00450291WA0000001063
B1454264017199N00450236WA0000001050
B1454274017199N00450230WA0000001048
B1454314017193N00450210WA0000001043
B1454414017199N00450147WA0000001030
B1454454017202N00450117WA0000001028
B1454504017197N00450090WA0000001022
B1454544017191N00450073WA0000001017
B1455014017175N00450053WA0000001011
B1455104017166N00450018WA0000001012
B1455134017162N00450005WA0000001011
B1455174017156N00449987WA0000001013
B1455294017139N00449930WA0000001020
B1455304017138N00449927WA0000001020
B1455334017137N00449911WA0000001022
B1455354017135N00449903WA0000001024
B1455434017125N00449881WA0000001019
B1455474017116N00449870WA0000001011
B1455544017105N00449852WA0000001001
B1455594017090N00449844WA0000000987
B1456044017069N00449845WA0000000981
B1456164017021N00449851WA0000000961
B1456234017005N00449857WA0000000961
B1456274016995N00449857WA0000000962
B1456324016982N00449854WA0000000962
B1456394016967N00449843WA0000000961
B1456504016946N00449817WA0000000952
B1456534016941N00449808WA0000000953
B1456574016937N00449794WA0000000954
B1457014016933N00449784WA0000000948
B1457054016922N00449782WA0000000945
B1457154016886N00449791WA0000000930
B1457254016843N00449808WA0000000909
B1457294016825N00449818WA0000000901
B1457374016807N00449862WA0000000887
B1457394016807N00449878WA0000000884
B1457524016815N00449981WA0000000861
B1457594016815N00450036WA0000000849
B1458074016798N00450089WA0000000836
B1458094016792N00450098WA0000000836
B1458134016780N00450112WA0000000833
B1458174016765N00450121WA0000000830
B1458194016758N00450125WA0000000830
B1458234016747N00450126WA0000000826
B1458294016743N00450106WA0000000817
B1458314016750N00450098WA0000000814
B1458374016753N00450072WA0000000804
B1458384016749N00450069WA0000000805
LXCG     VERSION:6.31
GAA23DE951A437128DC0B1F5BD6A41881CE3DBF230CC06BA202231E3945DCABE8F2F0A
GB686CFDD2B192A8AB25CAA654ECDC108DEC117C9F258B9BAD881B6494807CA36B20
G14DD589E375A7506A8B98794844C665BC5029BFEB4D5AF905C0A2A9B0293904CA17
G7C17003E22443B3FF8332672E62393F04D20D31E4ACFAEFA16237C62EDD56